sensor_id;sensor_type;location;lat;lon;timestamp;temperature;humidity
35559;DHT22;21661;50.794;-1.066;2022-10-15T00:01:36;12.30;99.90
35559;DHT22;21661;50.794;-1.066;2022-10-15T00:04:02;12.30;99.90
35559;DHT22;21661;50.794;-1.066;2022-10-15T00:06:28;12.30;99.90
35559;DHT22;21661;50.794;-1.066;2022-10-15T00:08:53;12.30;99.90
35559;DHT22;21661;50.794;-1.066;2022-10-15T00:11:20;12.30;99.90
35559;DHT22;21661;50.794;-1.066;2022-10-15T00:13:46;12.30;99.90
35559;DHT22;21661;50.794;-1.066;2022-10-15T00:16:13;12.40;99.90
35559;DHT22;21661;50.794;-1.066;2022-10-15T00:18:39;12.40;99.90
35559;DHT22;21661;50.794;-1.066;2022-10-15T00:21:06;12.40;99.90
35559;DHT22;21661;50.794;-1.066;2022-10-15T00:23:31;12.40;99.90
35559;DHT22;21661;50.794;-1.066;2022-10-15T00:26:01;12.30;99.90
35559;DHT22;21661;50.794;-1.066;2022-10-15T00:28:26;12.20;99.90
35559;DHT22;21661;50.794;-1.066;2022-10-15T00:30:52;12.30;99.90
35559;DHT22;21661;50.794;-1.066;2022-10-15T00:33:23;12.20;99.90
35559;DHT22;21661;50.794;-1.066;2022-10-15T00:35:56;12.20;99.90
35559;DHT22;21661;50.794;-1.066;2022-10-15T00:38:22;12.20;99.90
35559;DHT22;21661;50.794;-1.066;2022-10-15T00:40:47;12.20;99.90
35559;DHT22;21661;50.794;-1.066;2022-10-15T00:43:13;12.20;99.90
35559;DHT22;21661;50.794;-1.066;2022-10-15T00:45:38;12.20;99.90
35559;DHT22;21661;50.794;-1.066;2022-10-15T00:48:04;12.20;99.90
35559;DHT22;21661;50.794;-1.066;2022-10-15T00:50:29;12.20;99.90
35559;DHT22;21661;50.794;-1.066;2022-10-15T00:52:56;12.20;99.90
35559;DHT22;21661;50.794;-1.066;2022-10-15T00:55:26;12.10;99.90
35559;DHT22;21661;50.794;-1.066;2022-10-15T00:57:52;12.10;99.90
35559;DHT22;21661;50.794;-1.066;2022-10-15T01:00:18;12.00;99.90
35559;DHT22;21661;50.794;-1.066;2022-10-15T01:02:44;11.90;99.90
35559;DHT22;21661;50.794;-1.066;2022-10-15T01:05:10;11.90;99.90
35559;DHT22;21661;50.794;-1.066;2022-10-15T01:07:36;11.90;99.90
35559;DHT22;21661;50.794;-1.066;2022-10-15T01:10:02;11.80;99.90
35559;DHT22;21661;50.794;-1.066;2022-10-15T01:12:35;11.80;99.90
35559;DHT22;21661;50.794;-1.066;2022-10-15T01:15:49;11.80;99.90
35559;DHT22;21661;50.794;-1.066;2022-10-15T01:25:28;11.90;99.90
35559;DHT22;21661;50.794;-1.066;2022-10-15T01:30:44;11.90;99.90
35559;DHT22;21661;50.794;-1.066;2022-10-15T01:33:17;11.90;99.90
35559;DHT22;21661;50.794;-1.066;2022-10-15T01:35:50;12.00;99.90
35559;DHT22;21661;50.794;-1.066;2022-10-15T01:43:26;12.00;99.90
35559;DHT22;21661;50.794;-1.066;2022-10-15T01:45:57;12.00;99.90
35559;DHT22;21661;50.794;-1.066;2022-10-15T01:48:24;12.00;99.90
35559;DHT22;21661;50.794;-1.066;2022-10-15T01:50:52;12.00;99.90
35559;DHT22;21661;50.794;-1.066;2022-10-15T01:53:19;12.00;99.90
35559;DHT22;21661;50.794;-1.066;2022-10-15T01:55:51;12.00;99.90
35559;DHT22;21661;50.794;-1.066;2022-10-15T01:58:18;12.00;99.90
35559;DHT22;21661;50.794;-1.066;2022-10-15T02:00:43;11.90;99.90
35559;DHT22;21661;50.794;-1.066;2022-10-15T02:03:09;12.00;99.90
35559;DHT22;21661;50.794;-1.066;2022-10-15T02:05:36;11.90;99.90
35559;DHT22;21661;50.794;-1.066;2022-10-15T02:08:06;11.90;99.90
35559;DHT22;21661;50.794;-1.066;2022-10-15T02:13:31;11.90;99.90
35559;DHT22;21661;50.794;-1.066;2022-10-15T02:18:46;11.80;99.90
35559;DHT22;21661;50.794;-1.066;2022-10-15T02:21:15;11.80;99.90
35559;DHT22;21661;50.794;-1.066;2022-10-15T02:26:07;11.70;99.90
35559;DHT22;21661;50.794;-1.066;2022-10-15T02:28:33;11.80;99.90
35559;DHT22;21661;50.794;-1.066;2022-10-15T02:31:01;11.80;99.90
35559;DHT22;21661;50.794;-1.066;2022-10-15T02:33:28;11.80;99.90
35559;DHT22;21661;50.794;-1.066;2022-10-15T02:35:54;11.80;99.90
35559;DHT22;21661;50.794;-1.066;2022-10-15T02:38:21;11.80;99.90
35559;DHT22;21661;50.794;-1.066;2022-10-15T02:40:47;11.80;99.90
35559;DHT22;21661;50.794;-1.066;2022-10-15T02:43:13;11.70;99.90
35559;DHT22;21661;50.794;-1.066;2022-10-15T02:45:39;11.80;99.90
35559;DHT22;21661;50.794;-1.066;2022-10-15T02:48:05;11.80;99.90
35559;DHT22;21661;50.794;-1.066;2022-10-15T02:50:30;11.80;99.90
35559;DHT22;21661;50.794;-1.066;2022-10-15T02:52:56;11.80;99.90
35559;DHT22;21661;50.794;-1.066;2022-10-15T02:55:21;11.80;99.90
35559;DHT22;21661;50.794;-1.066;2022-10-15T02:57:47;11.80;99.90
35559;DHT22;21661;50.794;-1.066;2022-10-15T03:00:12;11.80;99.90
35559;DHT22;21661;50.794;-1.066;2022-10-15T03:02:38;11.80;99.90
35559;DHT22;21661;50.794;-1.066;2022-10-15T03:05:04;11.80;99.90
35559;DHT22;21661;50.794;-1.066;2022-10-15T03:07:29;11.80;99.90
35559;DHT22;21661;50.794;-1.066;2022-10-15T03:09:54;11.80;99.90
35559;DHT22;21661;50.794;-1.066;2022-10-15T03:12:20;11.80;99.90
35559;DHT22;21661;50.794;-1.066;2022-10-15T03:14:50;11.80;99.90
35559;DHT22;21661;50.794;-1.066;2022-10-15T03:17:16;11.80;99.90
35559;DHT22;21661;50.794;-1.066;2022-10-15T03:19:41;11.70;99.90
35559;DHT22;21661;50.794;-1.066;2022-10-15T03:22:07;11.80;99.90
35559;DHT22;21661;50.794;-1.066;2022-10-15T03:24:32;11.80;99.90
35559;DHT22;21661;50.794;-1.066;2022-10-15T03:26:58;11.80;99.90
35559;DHT22;21661;50.794;-1.066;2022-10-15T03:29:23;11.80;99.90
35559;DHT22;21661;50.794;-1.066;2022-10-15T03:31:49;11.80;99.90
35559;DHT22;21661;50.794;-1.066;2022-10-15T03:34:15;11.80;99.90
35559;DHT22;21661;50.794;-1.066;2022-10-15T03:36:40;11.80;99.90
35559;DHT22;21661;50.794;-1.066;2022-10-15T03:39:06;11.80;99.90
35559;DHT22;21661;50.794;-1.066;2022-10-15T03:41:32;11.80;99.90
35559;DHT22;21661;50.794;-1.066;2022-10-15T03:44:01;11.80;99.90
35559;DHT22;21661;50.794;-1.066;2022-10-15T03:46:27;11.80;99.90
35559;DHT22;21661;50.794;-1.066;2022-10-15T03:48:52;11.80;99.90
35559;DHT22;21661;50.794;-1.066;2022-10-15T03:51:18;11.80;99.90
35559;DHT22;21661;50.794;-1.066;2022-10-15T03:53:43;11.90;99.90
35559;DHT22;21661;50.794;-1.066;2022-10-15T03:56:09;11.90;99.90
35559;DHT22;21661;50.794;-1.066;2022-10-15T03:58:34;11.90;99.90
35559;DHT22;21661;50.794;-1.066;2022-10-15T04:01:00;11.90;99.90
35559;DHT22;21661;50.794;-1.066;2022-10-15T04:03:25;11.90;99.90
35559;DHT22;21661;50.794;-1.066;2022-10-15T04:05:51;11.90;99.90
35559;DHT22;21661;50.794;-1.066;2022-10-15T04:08:17;11.90;99.90
35559;DHT22;21661;50.794;-1.066;2022-10-15T04:10:43;11.90;99.90
35559;DHT22;21661;50.794;-1.066;2022-10-15T04:13:08;11.90;99.90
35559;DHT22;21661;50.794;-1.066;2022-10-15T04:15:34;11.90;99.90
35559;DHT22;21661;50.794;-1.066;2022-10-15T04:18:03;11.80;99.90
35559;DHT22;21661;50.794;-1.066;2022-10-15T04:20:29;11.80;99.90
35559;DHT22;21661;50.794;-1.066;2022-10-15T04:22:55;11.80;99.90
35559;DHT22;21661;50.794;-1.066;2022-10-15T04:25:20;11.90;99.90
35559;DHT22;21661;50.794;-1.066;2022-10-15T04:27:46;11.80;99.90
35559;DHT22;21661;50.794;-1.066;2022-10-15T04:30:12;11.80;99.90
35559;DHT22;21661;50.794;-1.066;2022-10-15T04:32:37;11.80;99.90
35559;DHT22;21661;50.794;-1.066;2022-10-15T04:35:03;11.80;99.90
35559;DHT22;21661;50.794;-1.066;2022-10-15T04:37:31;11.80;99.90
35559;DHT22;21661;50.794;-1.066;2022-10-15T04:39:57;11.80;99.90
35559;DHT22;21661;50.794;-1.066;2022-10-15T04:42:22;11.90;99.90
35559;DHT22;21661;50.794;-1.066;2022-10-15T04:44:48;11.90;99.90
35559;DHT22;21661;50.794;-1.066;2022-10-15T04:47:13;11.90;99.90
35559;DHT22;21661;50.794;-1.066;2022-10-15T04:49:39;12.00;99.90
35559;DHT22;21661;50.794;-1.066;2022-10-15T04:52:04;12.10;99.90
35559;DHT22;21661;50.794;-1.066;2022-10-15T04:54:30;12.20;99.90
35559;DHT22;21661;50.794;-1.066;2022-10-15T04:56:55;12.30;99.90
35559;DHT22;21661;50.794;-1.066;2022-10-15T04:59:21;12.20;99.90
35559;DHT22;21661;50.794;-1.066;2022-10-15T05:01:46;12.40;99.90
35559;DHT22;21661;50.794;-1.066;2022-10-15T05:04:12;12.40;99.90
35559;DHT22;21661;50.794;-1.066;2022-10-15T05:06:38;12.50;99.90
35559;DHT22;21661;50.794;-1.066;2022-10-15T05:09:03;12.60;99.90
35559;DHT22;21661;50.794;-1.066;2022-10-15T05:11:29;12.70;99.90
35559;DHT22;21661;50.794;-1.066;2022-10-15T05:13:55;12.70;99.90
35559;DHT22;21661;50.794;-1.066;2022-10-15T05:16:25;12.70;99.90
35559;DHT22;21661;50.794;-1.066;2022-10-15T05:18:51;12.80;99.90
35559;DHT22;21661;50.794;-1.066;2022-10-15T05:21:17;12.80;99.90
35559;DHT22;21661;50.794;-1.066;2022-10-15T05:23:43;12.90;99.90
35559;DHT22;21661;50.794;-1.066;2022-10-15T05:26:11;12.90;99.90
35559;DHT22;21661;50.794;-1.066;2022-10-15T05:28:37;13.00;99.90
35559;DHT22;21661;50.794;-1.066;2022-10-15T05:31:03;13.00;99.90
35559;DHT22;21661;50.794;-1.066;2022-10-15T05:33:29;13.10;99.90
35559;DHT22;21661;50.794;-1.066;2022-10-15T05:35:54;13.10;99.90
35559;DHT22;21661;50.794;-1.066;2022-10-15T05:38:20;13.10;99.90
35559;DHT22;21661;50.794;-1.066;2022-10-15T05:40:48;13.10;99.90
35559;DHT22;21661;50.794;-1.066;2022-10-15T05:43:14;13.20;99.90
35559;DHT22;21661;50.794;-1.066;2022-10-15T05:45:40;13.20;99.90
35559;DHT22;21661;50.794;-1.066;2022-10-15T05:48:06;13.20;99.90
35559;DHT22;21661;50.794;-1.066;2022-10-15T05:50:32;13.20;99.90
35559;DHT22;21661;50.794;-1.066;2022-10-15T05:52:57;13.20;99.90
35559;DHT22;21661;50.794;-1.066;2022-10-15T05:55:23;13.30;99.90
35559;DHT22;21661;50.794;-1.066;2022-10-15T05:57:48;13.30;99.90
35559;DHT22;21661;50.794;-1.066;2022-10-15T06:00:14;13.40;99.90
35559;DHT22;21661;50.794;-1.066;2022-10-15T06:02:39;13.40;99.90
35559;DHT22;21661;50.794;-1.066;2022-10-15T06:05:05;13.40;99.90
35559;DHT22;21661;50.794;-1.066;2022-10-15T06:07:31;13.40;99.90
35559;DHT22;21661;50.794;-1.066;2022-10-15T06:09:56;13.40;99.90
35559;DHT22;21661;50.794;-1.066;2022-10-15T06:12:22;13.50;99.90
35559;DHT22;21661;50.794;-1.066;2022-10-15T06:14:47;13.40;99.90
35559;DHT22;21661;50.794;-1.066;2022-10-15T06:17:13;13.40;99.90
35559;DHT22;21661;50.794;-1.066;2022-10-15T06:19:38;13.40;99.90
35559;DHT22;21661;50.794;-1.066;2022-10-15T06:22:04;13.40;99.90
35559;DHT22;21661;50.794;-1.066;2022-10-15T06:24:29;13.40;99.90
35559;DHT22;21661;50.794;-1.066;2022-10-15T06:26:56;13.40;99.90
35559;DHT22;21661;50.794;-1.066;2022-10-15T06:29:22;13.50;99.90
35559;DHT22;21661;50.794;-1.066;2022-10-15T06:31:47;13.50;99.90
35559;DHT22;21661;50.794;-1.066;2022-10-15T06:34:13;13.60;99.90
35559;DHT22;21661;50.794;-1.066;2022-10-15T06:36:38;13.60;99.90
35559;DHT22;21661;50.794;-1.066;2022-10-15T06:39:04;13.70;99.90
35559;DHT22;21661;50.794;-1.066;2022-10-15T06:41:29;13.70;99.90
35559;DHT22;21661;50.794;-1.066;2022-10-15T06:43:55;13.80;99.90
35559;DHT22;21661;50.794;-1.066;2022-10-15T06:46:20;13.70;99.90
35559;DHT22;21661;50.794;-1.066;2022-10-15T06:48:46;13.80;99.90
35559;DHT22;21661;50.794;-1.066;2022-10-15T06:51:11;13.90;99.90
35559;DHT22;21661;50.794;-1.066;2022-10-15T06:53:38;13.90;99.90
35559;DHT22;21661;50.794;-1.066;2022-10-15T06:56:06;14.00;99.90
35559;DHT22;21661;50.794;-1.066;2022-10-15T06:58:32;14.10;99.90
35559;DHT22;21661;50.794;-1.066;2022-10-15T07:01:01;14.10;99.90
35559;DHT22;21661;50.794;-1.066;2022-10-15T07:03:27;14.10;99.90
35559;DHT22;21661;50.794;-1.066;2022-10-15T07:05:53;14.10;99.90
35559;DHT22;21661;50.794;-1.066;2022-10-15T07:08:18;14.20;99.90
35559;DHT22;21661;50.794;-1.066;2022-10-15T07:10:44;14.20;99.90
35559;DHT22;21661;50.794;-1.066;2022-10-15T07:13:10;14.10;99.90
35559;DHT22;21661;50.794;-1.066;2022-10-15T07:15:35;14.10;99.90
35559;DHT22;21661;50.794;-1.066;2022-10-15T07:18:01;14.10;99.90
35559;DHT22;21661;50.794;-1.066;2022-10-15T07:20:30;14.10;99.90
35559;DHT22;21661;50.794;-1.066;2022-10-15T07:22:56;14.10;99.90
35559;DHT22;21661;50.794;-1.066;2022-10-15T07:25:23;14.10;99.90
35559;DHT22;21661;50.794;-1.066;2022-10-15T07:27:48;14.10;99.90
35559;DHT22;21661;50.794;-1.066;2022-10-15T07:30:14;14.00;99.90
35559;DHT22;21661;50.794;-1.066;2022-10-15T07:32:39;14.00;99.90
35559;DHT22;21661;50.794;-1.066;2022-10-15T07:35:05;14.00;99.90
35559;DHT22;21661;50.794;-1.066;2022-10-15T07:37:31;14.00;99.90
35559;DHT22;21661;50.794;-1.066;2022-10-15T07:39:56;14.10;99.90
35559;DHT22;21661;50.794;-1.066;2022-10-15T07:42:22;14.10;99.90
35559;DHT22;21661;50.794;-1.066;2022-10-15T07:44:47;14.20;99.90
35559;DHT22;21661;50.794;-1.066;2022-10-15T07:47:13;14.20;99.90
35559;DHT22;21661;50.794;-1.066;2022-10-15T07:49:38;14.20;99.90
35559;DHT22;21661;50.794;-1.066;2022-10-15T07:52:04;14.20;99.90
35559;DHT22;21661;50.794;-1.066;2022-10-15T07:54:31;14.20;99.90
35559;DHT22;21661;50.794;-1.066;2022-10-15T07:56:57;14.20;99.90
35559;DHT22;21661;50.794;-1.066;2022-10-15T07:59:22;14.20;99.90
35559;DHT22;21661;50.794;-1.066;2022-10-15T08:01:48;14.30;99.90
35559;DHT22;21661;50.794;-1.066;2022-10-15T08:04:15;14.30;99.90
35559;DHT22;21661;50.794;-1.066;2022-10-15T08:06:41;14.40;99.90
35559;DHT22;21661;50.794;-1.066;2022-10-15T08:09:06;14.50;99.90
35559;DHT22;21661;50.794;-1.066;2022-10-15T08:11:32;14.50;99.90
35559;DHT22;21661;50.794;-1.066;2022-10-15T08:13:57;14.50;99.90
35559;DHT22;21661;50.794;-1.066;2022-10-15T08:16:23;14.50;99.90
35559;DHT22;21661;50.794;-1.066;2022-10-15T08:18:48;14.60;99.90
35559;DHT22;21661;50.794;-1.066;2022-10-15T08:21:14;14.70;99.90
35559;DHT22;21661;50.794;-1.066;2022-10-15T08:23:39;14.70;99.90
35559;DHT22;21661;50.794;-1.066;2022-10-15T08:26:05;14.80;99.90
35559;DHT22;21661;50.794;-1.066;2022-10-15T08:28:31;14.90;99.90
35559;DHT22;21661;50.794;-1.066;2022-10-15T08:30:57;14.90;99.90
35559;DHT22;21661;50.794;-1.066;2022-10-15T08:33:23;15.00;99.90
35559;DHT22;21661;50.794;-1.066;2022-10-15T08:35:49;15.00;99.90
35559;DHT22;21661;50.794;-1.066;2022-10-15T08:38:14;15.00;99.90
35559;DHT22;21661;50.794;-1.066;2022-10-15T08:40:39;15.00;99.90
35559;DHT22;21661;50.794;-1.066;2022-10-15T08:43:16;15.10;99.90
35559;DHT22;21661;50.794;-1.066;2022-10-15T08:45:44;15.10;99.90
35559;DHT22;21661;50.794;-1.066;2022-10-15T08:51:12;15.20;99.90
35559;DHT22;21661;50.794;-1.066;2022-10-15T08:53:39;15.30;99.90
35559;DHT22;21661;50.794;-1.066;2022-10-15T08:56:14;15.30;99.90
35559;DHT22;21661;50.794;-1.066;2022-10-15T08:58:44;15.30;99.90
35559;DHT22;21661;50.794;-1.066;2022-10-15T09:06:18;15.50;99.90
35559;DHT22;21661;50.794;-1.066;2022-10-15T09:08:48;15.50;99.90
35559;DHT22;21661;50.794;-1.066;2022-10-15T09:11:29;15.60;99.90
35559;DHT22;21661;50.794;-1.066;2022-10-15T09:13:58;15.70;99.90
35559;DHT22;21661;50.794;-1.066;2022-10-15T09:16:27;15.70;99.90
35559;DHT22;21661;50.794;-1.066;2022-10-15T09:18:53;15.80;99.90
35559;DHT22;21661;50.794;-1.066;2022-10-15T09:21:21;15.80;99.90
35559;DHT22;21661;50.794;-1.066;2022-10-15T09:23:48;15.80;99.90
35559;DHT22;21661;50.794;-1.066;2022-10-15T09:26:16;15.80;99.90
35559;DHT22;21661;50.794;-1.066;2022-10-15T09:31:29;15.90;99.90
35559;DHT22;21661;50.794;-1.066;2022-10-15T09:34:00;15.80;99.90
35559;DHT22;21661;50.794;-1.066;2022-10-15T09:36:31;15.80;99.90
35559;DHT22;21661;50.794;-1.066;2022-10-15T09:41:48;15.90;99.90
35559;DHT22;21661;50.794;-1.066;2022-10-15T09:44:18;16.00;99.90
35559;DHT22;21661;50.794;-1.066;2022-10-15T09:46:46;16.00;99.90
35559;DHT22;21661;50.794;-1.066;2022-10-15T09:49:13;16.00;99.90
35559;DHT22;21661;50.794;-1.066;2022-10-15T09:51:45;16.00;99.90
35559;DHT22;21661;50.794;-1.066;2022-10-15T09:54:15;16.10;99.90
35559;DHT22;21661;50.794;-1.066;2022-10-15T09:56:48;16.10;99.90
35559;DHT22;21661;50.794;-1.066;2022-10-15T09:59:17;16.10;99.90
35559;DHT22;21661;50.794;-1.066;2022-10-15T10:02:03;16.10;99.90
35559;DHT22;21661;50.794;-1.066;2022-10-15T10:04:30;16.10;99.90
35559;DHT22;21661;50.794;-1.066;2022-10-15T10:06:57;16.20;99.90
35559;DHT22;21661;50.794;-1.066;2022-10-15T10:09:24;16.30;99.90
35559;DHT22;21661;50.794;-1.066;2022-10-15T10:11:55;16.40;99.90
35559;DHT22;21661;50.794;-1.066;2022-10-15T10:14:26;16.60;99.90
35559;DHT22;21661;50.794;-1.066;2022-10-15T10:17:03;16.70;99.90
35559;DHT22;21661;50.794;-1.066;2022-10-15T10:19:28;16.80;99.90
35559;DHT22;21661;50.794;-1.066;2022-10-15T10:21:54;16.90;99.90
35559;DHT22;21661;50.794;-1.066;2022-10-15T10:24:30;16.90;99.90
35559;DHT22;21661;50.794;-1.066;2022-10-15T10:26:58;16.90;99.90
35559;DHT22;21661;50.794;-1.066;2022-10-15T10:29:24;16.90;99.90
35559;DHT22;21661;50.794;-1.066;2022-10-15T10:31:50;16.80;99.90
35559;DHT22;21661;50.794;-1.066;2022-10-15T10:34:35;16.70;99.90
35559;DHT22;21661;50.794;-1.066;2022-10-15T10:37:01;16.60;99.90
35559;DHT22;21661;50.794;-1.066;2022-10-15T10:39:31;16.20;99.90
35559;DHT22;21661;50.794;-1.066;2022-10-15T10:52:18;15.30;99.90
35559;DHT22;21661;50.794;-1.066;2022-10-15T10:54:44;15.30;99.90
35559;DHT22;21661;50.794;-1.066;2022-10-15T10:57:10;15.30;99.90
35559;DHT22;21661;50.794;-1.066;2022-10-15T10:59:41;15.20;99.90
35559;DHT22;21661;50.794;-1.066;2022-10-15T11:02:09;15.10;99.90
35559;DHT22;21661;50.794;-1.066;2022-10-15T11:04:35;15.10;99.90
35559;DHT22;21661;50.794;-1.066;2022-10-15T11:19:54;14.80;99.90
35559;DHT22;21661;50.794;-1.066;2022-10-15T11:37:26;15.60;99.90
35559;DHT22;21661;50.794;-1.066;2022-10-15T11:50:29;16.00;99.90
35559;DHT22;21661;50.794;-1.066;2022-10-15T11:58:20;16.40;99.90
35559;DHT22;21661;50.794;-1.066;2022-10-15T12:00:52;16.60;99.90
35559;DHT22;21661;50.794;-1.066;2022-10-15T12:03:22;16.70;99.90
35559;DHT22;21661;50.794;-1.066;2022-10-15T12:05:50;16.80;99.90
35559;DHT22;21661;50.794;-1.066;2022-10-15T12:08:16;16.80;99.90
35559;DHT22;21661;50.794;-1.066;2022-10-15T12:20:33;16.90;99.90
35559;DHT22;21661;50.794;-1.066;2022-10-15T12:22:59;17.00;99.90
35559;DHT22;21661;50.794;-1.066;2022-10-15T12:25:44;17.00;99.90
35559;DHT22;21661;50.794;-1.066;2022-10-15T12:28:15;17.10;99.90
35559;DHT22;21661;50.794;-1.066;2022-10-15T12:30:41;17.20;99.90
35559;DHT22;21661;50.794;-1.066;2022-10-15T12:36:00;17.30;99.90
35559;DHT22;21661;50.794;-1.066;2022-10-15T12:41:03;17.30;99.90
35559;DHT22;21661;50.794;-1.066;2022-10-15T12:43:30;17.30;99.90
35559;DHT22;21661;50.794;-1.066;2022-10-15T12:45:59;17.30;99.90
35559;DHT22;21661;50.794;-1.066;2022-10-15T12:48:36;17.20;99.90
35559;DHT22;21661;50.794;-1.066;2022-10-15T12:53:46;17.20;99.90
35559;DHT22;21661;50.794;-1.066;2022-10-15T12:56:19;17.10;99.90
35559;DHT22;21661;50.794;-1.066;2022-10-15T12:58:50;17.00;99.90
35559;DHT22;21661;50.794;-1.066;2022-10-15T13:08:56;16.80;99.90
35559;DHT22;21661;50.794;-1.066;2022-10-15T13:11:30;16.80;99.90
35559;DHT22;21661;50.794;-1.066;2022-10-15T13:14:40;16.80;99.90
35559;DHT22;21661;50.794;-1.066;2022-10-15T13:16:46;16.80;99.90
35559;DHT22;21661;50.794;-1.066;2022-10-15T13:19:25;16.80;99.90
35559;DHT22;21661;50.794;-1.066;2022-10-15T13:24:18;16.90;99.90
35559;DHT22;21661;50.794;-1.066;2022-10-15T13:26:45;16.90;99.90
35559;DHT22;21661;50.794;-1.066;2022-10-15T13:29:13;16.80;99.90
35559;DHT22;21661;50.794;-1.066;2022-10-15T13:31:39;16.90;99.90
35559;DHT22;21661;50.794;-1.066;2022-10-15T13:34:12;16.90;99.90
35559;DHT22;21661;50.794;-1.066;2022-10-15T13:36:38;16.90;99.90
35559;DHT22;21661;50.794;-1.066;2022-10-15T13:39:05;16.90;99.90
35559;DHT22;21661;50.794;-1.066;2022-10-15T13:41:37;16.80;99.90
35559;DHT22;21661;50.794;-1.066;2022-10-15T13:44:05;16.90;99.90
35559;DHT22;21661;50.794;-1.066;2022-10-15T13:46:31;16.90;99.90
35559;DHT22;21661;50.794;-1.066;2022-10-15T13:49:02;17.00;99.90
35559;DHT22;21661;50.794;-1.066;2022-10-15T13:51:34;17.00;99.90
35559;DHT22;21661;50.794;-1.066;2022-10-15T13:54:01;17.10;99.90
35559;DHT22;21661;50.794;-1.066;2022-10-15T13:56:33;17.30;99.90
35559;DHT22;21661;50.794;-1.066;2022-10-15T13:58:59;17.40;99.90
35559;DHT22;21661;50.794;-1.066;2022-10-15T14:01:25;17.50;99.90
35559;DHT22;21661;50.794;-1.066;2022-10-15T14:08:49;18.00;99.90
35559;DHT22;21661;50.794;-1.066;2022-10-15T14:11:15;17.70;99.90
35559;DHT22;21661;50.794;-1.066;2022-10-15T14:13:45;17.60;99.90
35559;DHT22;21661;50.794;-1.066;2022-10-15T14:16:19;17.60;99.90
35559;DHT22;21661;50.794;-1.066;2022-10-15T14:18:45;17.50;99.90
35559;DHT22;21661;50.794;-1.066;2022-10-15T14:21:13;17.50;99.90
35559;DHT22;21661;50.794;-1.066;2022-10-15T14:23:39;17.60;99.90
35559;DHT22;21661;50.794;-1.066;2022-10-15T14:26:05;17.60;99.90
35559;DHT22;21661;50.794;-1.066;2022-10-15T14:28:31;17.50;99.90
35559;DHT22;21661;50.794;-1.066;2022-10-15T14:30:58;17.50;99.90
35559;DHT22;21661;50.794;-1.066;2022-10-15T14:33:30;17.50;99.90
35559;DHT22;21661;50.794;-1.066;2022-10-15T14:36:03;17.50;99.90
35559;DHT22;21661;50.794;-1.066;2022-10-15T14:38:29;17.50;99.90
35559;DHT22;21661;50.794;-1.066;2022-10-15T14:40:56;17.70;99.90
35559;DHT22;21661;50.794;-1.066;2022-10-15T14:43:27;17.70;99.90
35559;DHT22;21661;50.794;-1.066;2022-10-15T14:48:22;17.80;99.90
35559;DHT22;21661;50.794;-1.066;2022-10-15T14:50:48;17.70;99.90
35559;DHT22;21661;50.794;-1.066;2022-10-15T14:53:20;17.80;99.90
35559;DHT22;21661;50.794;-1.066;2022-10-15T14:55:50;17.70;99.90
35559;DHT22;21661;50.794;-1.066;2022-10-15T14:58:17;17.60;99.90
35559;DHT22;21661;50.794;-1.066;2022-10-15T15:00:43;17.70;99.90
35559;DHT22;21661;50.794;-1.066;2022-10-15T15:03:12;17.80;99.90
35559;DHT22;21661;50.794;-1.066;2022-10-15T15:05:42;17.80;99.90
35559;DHT22;21661;50.794;-1.066;2022-10-15T15:08:08;17.90;99.90
35559;DHT22;21661;50.794;-1.066;2022-10-15T15:10:34;17.90;99.90
35559;DHT22;21661;50.794;-1.066;2022-10-15T15:12:59;17.90;99.90
35559;DHT22;21661;50.794;-1.066;2022-10-15T15:15:25;17.90;99.90
35559;DHT22;21661;50.794;-1.066;2022-10-15T15:17:52;17.80;99.90
35559;DHT22;21661;50.794;-1.066;2022-10-15T15:20:17;17.70;99.90
35559;DHT22;21661;50.794;-1.066;2022-10-15T15:22:47;17.60;99.90
35559;DHT22;21661;50.794;-1.066;2022-10-15T15:25:29;17.50;99.90
35559;DHT22;21661;50.794;-1.066;2022-10-15T15:27:59;17.40;99.90
35559;DHT22;21661;50.794;-1.066;2022-10-15T15:30:25;17.30;99.90
35559;DHT22;21661;50.794;-1.066;2022-10-15T15:32:51;17.30;99.90
35559;DHT22;21661;50.794;-1.066;2022-10-15T15:37:42;17.20;99.90
35559;DHT22;21661;50.794;-1.066;2022-10-15T15:40:08;17.20;99.90
35559;DHT22;21661;50.794;-1.066;2022-10-15T15:42:34;17.20;99.90
35559;DHT22;21661;50.794;-1.066;2022-10-15T15:44:59;17.10;99.90
35559;DHT22;21661;50.794;-1.066;2022-10-15T15:47:25;17.10;99.90
35559;DHT22;21661;50.794;-1.066;2022-10-15T15:49:50;16.90;99.90
35559;DHT22;21661;50.794;-1.066;2022-10-15T15:52:16;16.80;99.90
35559;DHT22;21661;50.794;-1.066;2022-10-15T15:54:43;16.70;99.90
35559;DHT22;21661;50.794;-1.066;2022-10-15T15:57:10;16.70;99.90
35559;DHT22;21661;50.794;-1.066;2022-10-15T15:59:36;16.70;99.90
35559;DHT22;21661;50.794;-1.066;2022-10-15T16:02:01;16.60;99.90
35559;DHT22;21661;50.794;-1.066;2022-10-15T16:04:27;16.50;99.90
35559;DHT22;21661;50.794;-1.066;2022-10-15T16:06:52;16.50;99.90
35559;DHT22;21661;50.794;-1.066;2022-10-15T16:09:18;16.50;99.90
35559;DHT22;21661;50.794;-1.066;2022-10-15T16:11:46;16.40;99.90
35559;DHT22;21661;50.794;-1.066;2022-10-15T16:14:12;16.40;99.90
35559;DHT22;21661;50.794;-1.066;2022-10-15T16:16:37;16.40;99.90
35559;DHT22;21661;50.794;-1.066;2022-10-15T16:19:03;16.40;99.90
35559;DHT22;21661;50.794;-1.066;2022-10-15T16:21:29;16.40;99.90
35559;DHT22;21661;50.794;-1.066;2022-10-15T16:23:55;16.30;99.90
35559;DHT22;21661;50.794;-1.066;2022-10-15T16:26:20;16.30;99.90
35559;DHT22;21661;50.794;-1.066;2022-10-15T16:28:46;16.30;99.90
35559;DHT22;21661;50.794;-1.066;2022-10-15T16:31:18;16.20;99.90
35559;DHT22;21661;50.794;-1.066;2022-10-15T16:33:44;16.10;99.90
35559;DHT22;21661;50.794;-1.066;2022-10-15T16:36:10;16.10;99.90
35559;DHT22;21661;50.794;-1.066;2022-10-15T16:38:37;16.10;99.90
35559;DHT22;21661;50.794;-1.066;2022-10-15T16:41:03;16.00;99.90
35559;DHT22;21661;50.794;-1.066;2022-10-15T16:43:28;16.00;99.90
35559;DHT22;21661;50.794;-1.066;2022-10-15T16:45:54;16.00;99.90
35559;DHT22;21661;50.794;-1.066;2022-10-15T16:48:21;16.10;99.90
35559;DHT22;21661;50.794;-1.066;2022-10-15T16:50:46;16.10;99.90
35559;DHT22;21661;50.794;-1.066;2022-10-15T16:53:12;15.90;99.90
35559;DHT22;21661;50.794;-1.066;2022-10-15T16:55:37;15.60;99.90
35559;DHT22;21661;50.794;-1.066;2022-10-15T16:58:03;15.40;99.90
35559;DHT22;21661;50.794;-1.066;2022-10-15T17:00:28;15.20;99.90
35559;DHT22;21661;50.794;-1.066;2022-10-15T17:02:54;15.10;99.90
35559;DHT22;21661;50.794;-1.066;2022-10-15T17:05:19;15.00;99.90
35559;DHT22;21661;50.794;-1.066;2022-10-15T17:07:45;14.90;99.90
35559;DHT22;21661;50.794;-1.066;2022-10-15T17:10:10;14.80;99.90
35559;DHT22;21661;50.794;-1.066;2022-10-15T17:12:36;14.70;99.90
35559;DHT22;21661;50.794;-1.066;2022-10-15T17:15:01;14.50;99.90
35559;DHT22;21661;50.794;-1.066;2022-10-15T17:17:27;14.50;99.90
35559;DHT22;21661;50.794;-1.066;2022-10-15T17:19:52;14.30;99.90
35559;DHT22;21661;50.794;-1.066;2022-10-15T17:22:18;14.30;99.90
35559;DHT22;21661;50.794;-1.066;2022-10-15T17:24:45;14.30;99.90